Time;durP1;ratioP1;P1;durP2;ratioP2;P2;SDS_P1;SDS_P2;PMS_P1;PMS_P2;Temp;Humidity;BMP_temperature;BMP_pressure;BME280_temperature;BME280_humidity;BME280_pressure;Samples;Min_cycle;Max_cycle;Signal;HPM_P1;HPM_P2
2024/01/30 00:02:11;;;;;;;;;;;;;;;9.91;45.84;102188.03;4976062;27;98413;-65
2024/01/30 00:04:37;;;;;;;;;;;;;;;9.89;46.17;102188.22;4978545;27;99716;-72
2024/01/30 00:07:03;;;;;;;;;;;;;;;9.87;46.65;102190.34;4989924;27;98703;-72
2024/01/30 00:09:29;;;;;;;;;;;;;;;9.86;46.40;102177.06;4944794;27;98242;-72
2024/01/30 00:11:56;;;;;;;;;;;;;;;9.84;46.25;102175.41;4960784;27;98366;-71
2024/01/30 00:14:22;;;;;;;;;;;;;;;9.82;46.63;102177.53;4950511;27;99524;-66
2024/01/30 00:16:48;;;;;;;;;;;;;;;9.82;46.63;102174.84;4959127;27;98879;-65
2024/01/30 00:19:15;;;;;;;;;;;;;;;9.80;46.41;102174.22;4961285;28;98993;-71
2024/01/30 00:21:41;;;;;;;;;;;;;;;9.80;45.87;102170.72;4959321;27;98230;-72
2024/01/30 00:24:07;;;;;;;;;;;;;;;9.79;46.10;102171.75;4955820;27;98429;-72
2024/01/30 00:26:33;;;;;;;;;;;;;;;9.78;46.52;102170.91;4975822;27;97998;-72
2024/01/30 00:28:59;;;;;;;;;;;;;;;9.79;46.01;102166.38;4964642;27;98262;-65
2024/01/30 00:31:25;;;;;;;;;;;;;;;9.78;46.41;102172.78;4974106;27;98373;-72
2024/01/30 00:33:51;;;;;;;;;;;;;;;9.77;46.37;102168.44;4950463;28;98143;-72
2024/01/30 00:36:17;;;;;;;;;;;;;;;9.76;46.53;102162.25;4964378;27;98458;-72
2024/01/30 00:38:43;;;;;;;;;;;;;;;9.76;45.98;102159.53;4957157;27;116977;-72
2024/01/30 00:41:10;;;;;;;;;;;;;;;9.74;46.45;102156.25;4945686;27;98344;-66
2024/01/30 00:43:36;;;;;;;;;;;;;;;9.76;46.36;102166.81;4944043;27;99444;-72
2024/01/30 00:46:03;;;;;;;;;;;;;;;9.75;46.08;102165.97;4944946;27;98914;-72
2024/01/30 00:48:29;;;;;;;;;;;;;;;9.75;46.22;102174.06;4949801;27;98376;-65
2024/01/30 00:50:55;;;;;;;;;;;;;;;9.74;46.27;102169.69;4971941;27;98145;-72
2024/01/30 00:53:21;;;;;;;;;;;;;;;9.74;46.07;102169.69;4960840;28;98105;-72
2024/01/30 00:55:47;;;;;;;;;;;;;;;9.74;46.37;102175.09;4941987;27;118999;-65
2024/01/30 00:58:13;;;;;;;;;;;;;;;9.75;46.00;102168.69;4960391;27;99245;-65
2024/01/30 01:00:39;;;;;;;;;;;;;;;9.75;46.24;102173.25;4964842;27;105572;-65
2024/01/30 01:03:05;;;;;;;;;;;;;;;9.75;46.15;102173.25;4975374;27;99918;-66
2024/01/30 01:05:31;;;;;;;;;;;;;;;9.74;46.33;102168.88;4972295;27;126843;-72
2024/01/30 01:07:57;;;;;;;;;;;;;;;9.72;46.41;102166.41;4961691;28;110898;-65
2024/01/30 01:10:23;;;;;;;;;;;;;;;9.73;45.99;102164.53;4957875;27;99757;-72
2024/01/30 01:12:49;;;;;;;;;;;;;;;9.72;46.55;102166.41;4972103;27;99690;-72
2024/01/30 01:15:15;;;;;;;;;;;;;;;9.72;45.88;102161.03;4957870;27;98338;-72
2024/01/30 01:17:41;;;;;;;;;;;;;;;9.72;46.08;102160.22;4975824;27;106614;-72
2024/01/30 01:20:08;;;;;;;;;;;;;;;9.71;46.39;102159.41;4958446;28;98297;-72
2024/01/30 01:22:34;;;;;;;;;;;;;;;9.70;46.47;102160.41;4945652;27;98778;-72
2024/01/30 01:25:00;;;;;;;;;;;;;;;9.70;46.40;102156.91;4943833;28;98187;-65
2024/01/30 01:27:26;;;;;;;;;;;;;;;9.69;45.99;102158.78;4944391;27;98357;-71
2024/01/30 01:29:52;;;;;;;;;;;;;;;9.69;46.11;102157.94;4977613;27;98531;-72
2024/01/30 01:32:18;;;;;;;;;;;;;;;9.69;46.32;102161.47;4962925;27;105200;-72
2024/01/30 01:34:45;;;;;;;;;;;;;;;9.69;46.45;102155.25;4964851;27;98014;-72
2024/01/30 01:37:11;;;;;;;;;;;;;;;9.68;46.34;102151.75;4958892;28;102770;-72
2024/01/30 01:39:37;;;;;;;;;;;;;;;9.69;46.21;102149.88;4957360;27;98441;-72
2024/01/30 01:42:03;;;;;;;;;;;;;;;9.68;46.11;102159.00;4965054;28;127754;-72
2024/01/30 01:44:29;;;;;;;;;;;;;;;9.69;46.45;102142.63;4964338;27;98353;-72
2024/01/30 01:46:55;;;;;;;;;;;;;;;9.76;46.67;102143.38;4965378;27;98102;-65
2024/01/30 01:49:22;;;;;;;;;;;;;;;9.82;46.75;102147.91;4941212;27;100045;-66
2024/01/30 01:51:49;;;;;;;;;;;;;;;9.89;46.42;102147.81;4943396;28;98087;-72
2024/01/30 01:54:15;;;;;;;;;;;;;;;9.92;46.66;102133.91;4946003;27;100515;-72
2024/01/30 01:56:41;;;;;;;;;;;;;;;9.96;46.13;102148.59;4974134;27;98287;-65
2024/01/30 01:59:08;;;;;;;;;;;;;;;9.99;46.49;102144.63;4957057;28;98765;-66
2024/01/30 02:01:37;;;;;;;;;;;;;;;10.00;46.41;102152.47;4972690;27;98243;-65
2024/01/30 02:04:06;;;;;;;;;;;;;;;10.02;46.39;102147.72;4958736;28;97999;-65
2024/01/30 02:06:32;;;;;;;;;;;;;;;10.03;46.65;102151.22;4947600;27;98236;-65
2024/01/30 02:08:58;;;;;;;;;;;;;;;10.04;45.95;102136.69;4947994;28;98416;-66
2024/01/30 02:11:27;;;;;;;;;;;;;;;10.05;46.55;102146.41;4956658;27;98262;-72
2024/01/30 02:13:53;;;;;;;;;;;;;;;10.05;46.57;102135.63;4960348;28;99355;-72
2024/01/30 02:16:19;;;;;;;;;;;;;;;10.05;46.65;102135.63;4956967;28;98397;-72
2024/01/30 02:18:47;;;;;;;;;;;;;;;10.06;46.19;102139.97;4949267;27;98281;-72
2024/01/30 02:21:16;;;;;;;;;;;;;;;10.05;46.73;102136.47;4965309;27;98273;-65
2024/01/30 02:23:44;;;;;;;;;;;;;;;10.05;46.13;102130.25;4950758;27;99537;-72
2024/01/30 02:26:11;;;;;;;;;;;;;;;10.05;46.65;102130.25;4974902;27;98198;-72
2024/01/30 02:28:37;;;;;;;;;;;;;;;10.05;46.06;102139.16;4961790;27;98295;-65
2024/01/30 02:31:04;;;;;;;;;;;;;;;10.04;46.65;102131.31;4946477;28;98530;-65
2024/01/30 02:33:30;;;;;;;;;;;;;;;10.04;46.49;102134.81;4959912;27;106903;-72
2024/01/30 02:35:56;;;;;;;;;;;;;;;10.04;46.49;102132.13;4955673;28;98614;-67
2024/01/30 02:38:23;;;;;;;;;;;;;;;10.03;46.09;102137.75;4961138;28;98888;-72
2024/01/30 02:40:49;;;;;;;;;;;;;;;10.03;46.74;102133.19;4947177;27;98363;-72
2024/01/30 02:43:16;;;;;;;;;;;;;;;10.02;46.17;102128.84;4959952;28;98034;-65
2024/01/30 02:45:42;;;;;;;;;;;;;;;10.01;46.59;102129.88;4963796;27;97989;-72
2024/01/30 02:48:08;;;;;;;;;;;;;;;10.02;46.62;102128.00;4960756;28;98032;-72
2024/01/30 02:50:34;;;;;;;;;;;;;;;10.01;46.36;102126.34;4968879;27;127504;-65
2024/01/30 02:53:00;;;;;;;;;;;;;;;10.00;46.37;102128.22;4977614;27;129827;-72
2024/01/30 02:55:26;;;;;;;;;;;;;;;10.01;46.68;102126.34;4944737;27;98255;-72
2024/01/30 02:57:52;;;;;;;;;;;;;;;10.01;46.37;102126.34;4949614;28;97936;-72
2024/01/30 03:00:19;;;;;;;;;;;;;;;10.00;46.37;102128.22;4969741;27;110690;-72
2024/01/30 03:02:45;;;;;;;;;;;;;;;10.00;46.08;102132.81;4957443;27;98171;-72
2024/01/30 03:05:11;;;;;;;;;;;;;;;9.99;46.32;102139.25;4971959;27;97939;-72
2024/01/30 03:07:37;;;;;;;;;;;;;;;9.98;45.77;102141.13;4946085;27;98302;-72
2024/01/30 03:10:05;;;;;;;;;;;;;;;9.97;46.52;102139.44;4971890;27;125001;-72
2024/01/30 03:12:31;;;;;;;;;;;;;;;9.97;46.42;102134.06;4943119;27;99866;-65
2024/01/30 03:14:58;;;;;;;;;;;;;;;9.96;46.64;102135.13;4960343;27;99168;-65
2024/01/30 03:17:24;;;;;;;;;;;;;;;9.96;46.37;102128.91;4980653;27;98057;-65
2024/01/30 03:19:52;;;;;;;;;;;;;;;9.97;46.52;102128.66;4979986;27;116735;-72
2024/01/30 03:22:18;;;;;;;;;;;;;;;9.96;45.84;102129.72;4981200;27;113315;-72
2024/01/30 03:24:44;;;;;;;;;;;;;;;9.96;46.33;102129.72;4979233;27;98138;-65
2024/01/30 03:27:10;;;;;;;;;;;;;;;9.95;46.31;102127.25;4963085;27;98122;-65
2024/01/30 03:29:36;;;;;;;;;;;;;;;9.95;46.48;102127.25;4942117;27;99491;-71
2024/01/30 03:32:03;;;;;;;;;;;;;;;9.94;46.68;102134.53;4950688;27;98552;-65
2024/01/30 03:34:30;;;;;;;;;;;;;;;9.93;46.22;102130.16;4976235;27;99627;-65
2024/01/30 03:36:56;;;;;;;;;;;;;;;9.91;46.18;102126.88;4960114;27;115025;-65
2024/01/30 03:39:22;;;;;;;;;;;;;;;9.92;46.40;102127.72;4974939;27;99647;-65
2024/01/30 03:41:48;;;;;;;;;;;;;;;9.91;46.65;102124.19;4947336;27;111260;-72
2024/01/30 03:44:14;;;;;;;;;;;;;;;9.91;46.42;102121.50;4974790;27;120020;-72
2024/01/30 03:46:40;;;;;;;;;;;;;;;9.90;46.26;102121.69;4962128;27;98410;-72
2024/01/30 03:49:07;;;;;;;;;;;;;;;9.91;46.07;102126.06;4972443;27;102042;-65
2024/01/30 03:51:33;;;;;;;;;;;;;;;9.89;46.11;102123.56;4946082;27;98167;-72
2024/01/30 03:53:59;;;;;;;;;;;;;;;9.88;46.44;102119.25;4949869;27;98971;-65
2024/01/30 03:56:25;;;;;;;;;;;;;;;9.89;46.53;102118.19;4941122;27;98296;-65
2024/01/30 03:58:51;;;;;;;;;;;;;;;9.88;46.36;102113.84;4957757;27;127547;-72
2024/01/30 04:01:18;;;;;;;;;;;;;;;9.88;46.45;102110.34;4961755;27;98472;-65
2024/01/30 04:03:44;;;;;;;;;;;;;;;9.88;46.06;102110.34;4951563;27;98158;-65
2024/01/30 04:06:10;;;;;;;;;;;;;;;9.87;46.06;102109.53;4953325;27;98130;-65
2024/01/30 04:08:36;;;;;;;;;;;;;;;9.88;46.05;102108.47;4946978;27;102966;-65
2024/01/30 04:11:06;;;;;;;;;;;;;;;9.88;46.18;102104.97;4951345;27;98215;-65
2024/01/30 04:13:32;;;;;;;;;;;;;;;9.88;46.75;102104.97;4970005;27;99093;-65
2024/01/30 04:16:02;;;;;;;;;;;;;;;9.88;46.08;102105.78;4961284;27;100934;-65
2024/01/30 04:18:28;;;;;;;;;;;;;;;9.88;46.68;102104.97;4979177;27;99159;-72
2024/01/30 04:20:54;;;;;;;;;;;;;;;9.87;46.35;102109.53;4967339;27;99358;-65
2024/01/30 04:23:20;;;;;;;;;;;;;;;9.86;46.11;102102.47;4966550;27;104977;-72
2024/01/30 04:25:46;;;;;;;;;;;;;;;9.86;45.94;102099.78;4952553;27;128024;-65
2024/01/30 04:28:12;;;;;;;;;;;;;;;9.84;46.57;102091.94;4966061;27;98506;-65
2024/01/30 04:30:39;;;;;;;;;;;;;;;9.86;46.11;102101.66;4965626;27;98553;-65
2024/01/30 04:33:05;;;;;;;;;;;;;;;9.85;46.71;102100.81;4949031;27;98220;-65
2024/01/30 04:35:31;;;;;;;;;;;;;;;9.84;46.41;102102.69;4965600;27;98782;-65
2024/01/30 04:37:57;;;;;;;;;;;;;;;9.86;46.48;102102.47;4948377;27;98043;-72
2024/01/30 04:40:23;;;;;;;;;;;;;;;9.86;46.63;102107.03;4967370;27;98014;-65
2024/01/30 04:42:49;;;;;;;;;;;;;;;9.84;46.08;102107.25;4996183;27;98096;-72
2024/01/30 04:45:15;;;;;;;;;;;;;;;9.82;46.27;102107.50;4959538;27;98051;-72
2024/01/30 04:47:42;;;;;;;;;;;;;;;9.83;46.69;102105.63;4984759;27;98794;-72
2024/01/30 04:50:08;;;;;;;;;;;;;;;9.84;46.03;102107.25;4960538;27;98186;-72
2024/01/30 04:52:34;;;;;;;;;;;;;;;9.82;46.38;102104.81;4978482;27;98093;-72
2024/01/30 04:55:00;;;;;;;;;;;;;;;9.82;46.50;102099.41;4949567;27;99615;-65
2024/01/30 04:57:26;;;;;;;;;;;;;;;9.81;46.27;102102.31;4950453;27;99204;-65
2024/01/30 04:59:53;;;;;;;;;;;;;;;9.82;46.27;102106.66;4976953;27;97945;-71
2024/01/30 05:02:19;;;;;;;;;;;;;;;9.81;46.10;102105.00;4979227;27;99489;-65
2024/01/30 05:04:45;;;;;;;;;;;;;;;9.81;46.55;102105.00;4966311;27;98431;-71
2024/01/30 05:07:11;;;;;;;;;;;;;;;9.80;46.68;102103.38;4965622;27;98521;-65
2024/01/30 05:09:37;;;;;;;;;;;;;;;9.79;46.10;102097.16;4997000;27;111520;-65
2024/01/30 05:12:04;;;;;;;;;;;;;;;9.80;46.50;102100.69;4964009;27;99737;-71
2024/01/30 05:14:30;;;;;;;;;;;;;;;9.78;46.08;102098.19;4981474;27;98212;-72
2024/01/30 05:16:56;;;;;;;;;;;;;;;9.78;46.67;102094.69;4951945;27;99784;-65
2024/01/30 05:19:23;;;;;;;;;;;;;;;9.77;46.26;102091.16;4984432;27;108749;-65
2024/01/30 05:21:49;;;;;;;;;;;;;;;9.77;46.11;102093.03;4964551;27;98222;-65
2024/01/30 05:24:15;;;;;;;;;;;;;;;9.76;46.12;102088.72;4982791;27;98187;-71
2024/01/30 05:26:41;;;;;;;;;;;;;;;9.76;46.50;102096.78;4948991;27;98429;-71
2024/01/30 05:29:07;;;;;;;;;;;;;;;9.75;46.23;102093.28;4980045;27;107042;-65
2024/01/30 05:31:34;;;;;;;;;;;;;;;9.73;46.38;102087.28;4976638;27;98778;-65
2024/01/30 05:34:00;;;;;;;;;;;;;;;9.73;46.61;102087.28;4964539;27;100190;-71
2024/01/30 05:36:26;;;;;;;;;;;;;;;9.75;46.40;102100.53;4948159;27;98481;-72
2024/01/30 05:38:52;;;;;;;;;;;;;;;9.74;46.20;102096.16;4976565;27;99416;-65
2024/01/30 05:41:20;;;;;;;;;;;;;;;9.73;46.70;102099.91;4964132;27;99653;-72
2024/01/30 05:43:47;;;;;;;;;;;;;;;9.71;46.31;102092.06;4996177;27;98235;-65
2024/01/30 05:46:13;;;;;;;;;;;;;;;9.70;46.41;102098.47;4959674;27;102971;-71
2024/01/30 05:48:40;;;;;;;;;;;;;;;9.71;46.65;102104.72;4947566;27;98533;-71
2024/01/30 05:51:08;;;;;;;;;;;;;;;9.70;46.16;102100.34;4946677;27;98754;-66
2024/01/30 05:53:34;;;;;;;;;;;;;;;9.69;46.68;102098.72;4959837;27;98056;-71
2024/01/30 05:56:02;;;;;;;;;;;;;;;9.68;46.29;102100.59;4946954;27;100484;-65
2024/01/30 05:58:28;;;;;;;;;;;;;;;9.67;46.78;102096.25;4976984;27;98828;-71
2024/01/30 06:00:54;;;;;;;;;;;;;;;9.66;46.70;102097.28;4948529;27;98007;-65
2024/01/30 06:03:20;;;;;;;;;;;;;;;9.65;45.99;102092.13;4975154;27;98379;-71
2024/01/30 06:05:46;;;;;;;;;;;;;;;9.65;46.59;102095.63;4981874;27;104579;-65
2024/01/30 06:08:12;;;;;;;;;;;;;;;9.65;46.63;102092.94;4977236;27;99927;-71
2024/01/30 06:10:39;;;;;;;;;;;;;;;9.64;46.63;102087.78;4992339;27;97912;-65
2024/01/30 06:13:05;;;;;;;;;;;;;;;9.63;46.25;102091.50;4967624;27;98327;-65
2024/01/30 06:15:32;;;;;;;;;;;;;;;9.61;46.55;102091.75;4964001;27;98148;-66
2024/01/30 06:17:58;;;;;;;;;;;;;;;9.61;46.96;102089.06;4951565;27;99533;-65
2024/01/30 06:20:24;;;;;;;;;;;;;;;9.59;46.20;102088.47;4949605;27;99643;-65
2024/01/30 06:22:50;;;;;;;;;;;;;;;9.59;46.32;102091.16;4964206;27;111016;-65
2024/01/30 06:25:17;;;;;;;;;;;;;;;9.58;46.19;102081.41;4961694;27;101371;-65
2024/01/30 06:27:43;;;;;;;;;;;;;;;9.57;46.56;102087.84;4943668;27;99262;-65
2024/01/30 06:30:10;;;;;;;;;;;;;;;9.57;46.12;102087.84;4963520;27;98828;-71
2024/01/30 06:32:36;;;;;;;;;;;;;;;9.57;46.54;102090.53;4966311;27;98059;-65
2024/01/30 06:35:02;;;;;;;;;;;;;;;9.57;46.13;102083.28;4967593;27;98383;-65
2024/01/30 06:37:28;;;;;;;;;;;;;;;9.58;46.75;102093.00;4962596;27;99080;-71
2024/01/30 06:39:54;;;;;;;;;;;;;;;9.58;46.28;102086.78;4979518;27;98109;-71
2024/01/30 06:42:20;;;;;;;;;;;;;;;9.59;46.20;102088.47;4968312;27;98025;-65
2024/01/30 06:44:46;;;;;;;;;;;;;;;9.59;46.58;102089.28;4953802;27;98465;-71
2024/01/30 06:47:12;;;;;;;;;;;;;;;9.62;46.09;102092.56;4965185;27;98292;-71
2024/01/30 06:49:38;;;;;;;;;;;;;;;9.62;46.03;102088.00;4945069;27;97919;-65
2024/01/30 06:52:08;;;;;;;;;;;;;;;9.64;46.66;102083.22;4961193;27;100032;-71
2024/01/30 06:54:34;;;;;;;;;;;;;;;9.65;45.95;102079.47;4991857;27;98762;-65
2024/01/30 06:57:00;;;;;;;;;;;;;;;9.69;46.20;102087.94;4967406;27;97839;-71
2024/01/30 06:59:26;;;;;;;;;;;;;;;9.70;46.17;102090.41;4980308;27;97931;-65
2024/01/30 07:01:52;;;;;;;;;;;;;;;9.74;46.31;102082.72;4949131;27;97979;-72
2024/01/30 07:04:18;;;;;;;;;;;;;;;9.75;46.15;102079.00;4977588;27;98040;-71
2024/01/30 07:06:44;;;;;;;;;;;;;;;9.78;46.20;102083.91;4962230;27;97836;-65
2024/01/30 07:09:10;;;;;;;;;;;;;;;9.81;46.16;102088.84;4969229;27;97876;-71
2024/01/30 07:11:36;;;;;;;;;;;;;;;9.84;45.90;102089.22;4945002;27;129787;-71
2024/01/30 07:14:05;;;;;;;;;;;;;;;9.88;45.83;102086.09;4979138;27;115192;-71
2024/01/30 07:16:31;;;;;;;;;;;;;;;9.92;46.09;102088.13;4963988;27;98343;-71
2024/01/30 07:18:57;;;;;;;;;;;;;;;9.97;45.90;102090.13;4978030;27;100262;-65
2024/01/30 07:21:28;;;;;;;;;;;;;;;10.02;46.08;102092.97;4983360;27;99971;-65
2024/01/30 07:23:57;;;;;;;;;;;;;;;10.07;46.15;102087.75;4967015;27;98193;-65
2024/01/30 07:26:23;;;;;;;;;;;;;;;10.15;46.35;102089.31;4981258;27;98200;-65
2024/01/30 07:28:50;;;;;;;;;;;;;;;10.21;46.05;102088.41;4963521;27;98080;-65
2024/01/30 07:31:16;;;;;;;;;;;;;;;10.28;46.21;102090.00;4976180;27;99495;-71
2024/01/30 07:33:42;;;;;;;;;;;;;;;10.36;46.24;102088.88;4962162;27;98073;-71
2024/01/30 07:36:08;;;;;;;;;;;;;;;10.45;45.80;102084.00;4974406;27;98102;-65
2024/01/30 07:38:34;;;;;;;;;;;;;;;10.52;45.50;102077.47;4962218;27;98481;-71
2024/01/30 07:41:00;;;;;;;;;;;;;;;10.61;45.66;102079.84;4964370;27;108654;-71
2024/01/30 07:43:26;;;;;;;;;;;;;;;10.70;45.85;102073.91;4992911;27;98044;-65
2024/01/30 07:45:52;;;;;;;;;;;;;;;10.82;45.93;102076.66;4963714;27;98393;-71
2024/01/30 07:48:18;;;;;;;;;;;;;;;10.91;45.91;102072.56;4977070;27;99093;-72
2024/01/30 07:50:44;;;;;;;;;;;;;;;10.99;45.69;102074.09;4959236;27;98029;-71
2024/01/30 07:53:11;;;;;;;;;;;;;;;11.06;45.74;102067.56;4976282;27;115815;-71
2024/01/30 07:55:37;;;;;;;;;;;;;;;11.14;45.97;102068.28;4958400;27;98306;-65
2024/01/30 07:58:04;;;;;;;;;;;;;;;11.22;45.70;102070.63;4961777;27;102159;-71
2024/01/30 08:00:30;;;;;;;;;;;;;;;11.30;45.94;102067.59;4947728;27;98147;-65
2024/01/30 08:02:56;;;;;;;;;;;;;;;11.42;45.67;102063.00;4976596;27;98181;-71
2024/01/30 08:05:23;;;;;;;;;;;;;;;11.53;45.49;102064.09;4943438;27;98195;-65
2024/01/30 08:07:49;;;;;;;;;;;;;;;11.66;45.44;102073.81;4977670;27;98409;-65
2024/01/30 08:10:15;;;;;;;;;;;;;;;11.80;45.50;102065.25;4979356;27;117257;-72
2024/01/30 08:12:41;;;;;;;;;;;;;;;11.94;45.27;102068.53;4948016;27;98131;-71
2024/01/30 08:15:07;;;;;;;;;;;;;;;12.13;45.19;102062.97;4945928;27;98027;-65
2024/01/30 08:17:33;;;;;;;;;;;;;;;12.36;45.07;102062.91;4952119;27;98029;-65
2024/01/30 08:19:59;;;;;;;;;;;;;;;12.62;44.89;102075.03;4982200;27;98587;-71
2024/01/30 08:22:25;;;;;;;;;;;;;;;12.95;44.58;102071.56;4994632;27;98076;-65
2024/01/30 08:24:51;;;;;;;;;;;;;;;13.29;44.77;102071.63;4946116;27;111147;-71
2024/01/30 08:27:17;;;;;;;;;;;;;;;13.57;44.35;102062.56;4963380;27;99538;-72
2024/01/30 08:29:43;;;;;;;;;;;;;;;13.80;44.40;102066.97;4961185;27;98147;-72
2024/01/30 08:32:09;;;;;;;;;;;;;;;14.03;44.37;102070.50;4976783;27;100165;-65
2024/01/30 08:34:35;;;;;;;;;;;;;;;14.23;44.52;102068.06;4958781;27;98362;-71
2024/01/30 08:37:01;;;;;;;;;;;;;;;14.37;44.75;102061.16;4960162;27;98682;-72
2024/01/30 08:39:31;;;;;;;;;;;;;;;14.70;44.41;102065.63;4957850;27;130394;-65
2024/01/30 08:41:57;;;;;;;;;;;;;;;15.04;44.09;102069.97;4973278;27;99008;-71
2024/01/30 08:44:23;;;;;;;;;;;;;;;15.34;44.27;102075.66;4961851;27;98387;-72
2024/01/30 08:46:50;;;;;;;;;;;;;;;15.75;43.86;102080.56;4981795;27;97956;-72
2024/01/30 08:49:20;;;;;;;;;;;;;;;16.09;43.89;102087.28;4979186;27;100318;-72
2024/01/30 08:51:47;;;;;;;;;;;;;;;16.40;43.84;102084.69;4981705;27;98346;-65
2024/01/30 08:54:13;;;;;;;;;;;;;;;16.77;43.66;102086.44;4964296;27;98121;-72
2024/01/30 08:56:39;;;;;;;;;;;;;;;17.01;43.67;102092.16;4962565;27;98061;-65
2024/01/30 08:59:05;;;;;;;;;;;;;;;17.21;43.82;102092.16;4977961;27;119097;-66
2024/01/30 09:01:31;;;;;;;;;;;;;;;17.53;43.64;102089.16;4951820;27;99250;-72
2024/01/30 09:03:57;;;;;;;;;;;;;;;17.75;43.65;102093.50;4951946;27;116085;-65
2024/01/30 09:06:23;;;;;;;;;;;;;;;17.86;43.80;102093.22;4969308;27;99288;-66
2024/01/30 09:08:50;;;;;;;;;;;;;;;17.84;43.81;102095.41;4961388;27;98419;-66
2024/01/30 09:11:16;;;;;;;;;;;;;;;17.80;43.95;102086.16;4959247;27;98162;-66
2024/01/30 09:13:43;;;;;;;;;;;;;;;17.81;43.90;102095.97;4959357;27;98412;-72
2024/01/30 09:16:09;;;;;;;;;;;;;;;17.81;44.04;102095.16;4961231;27;98592;-66
2024/01/30 09:18:35;;;;;;;;;;;;;;;17.78;44.20;102090.25;4951436;27;103648;-66
2024/01/30 09:21:01;;;;;;;;;;;;;;;17.74;44.34;102094.59;4966811;27;98239;-65
2024/01/30 09:23:30;;;;;;;;;;;;;;;17.72;44.35;102085.84;4965360;27;98505;-66
2024/01/30 09:25:56;;;;;;;;;;;;;;;17.71;44.49;102082.31;4948641;27;98178;-66
2024/01/30 09:28:22;;;;;;;;;;;;;;;17.80;44.32;102079.84;4996560;27;98061;-72
2024/01/30 09:30:48;;;;;;;;;;;;;;;17.82;44.34;102080.41;4948083;27;99693;-65
2024/01/30 09:33:15;;;;;;;;;;;;;;;17.84;44.38;102078.19;4950243;27;99340;-66
2024/01/30 09:35:41;;;;;;;;;;;;;;;17.92;44.42;102072.22;4962250;27;98592;-72
2024/01/30 09:38:06;;;;;;;;;;;;;;;18.02;44.25;102069.41;4973993;27;130305;-71
2024/01/30 09:40:33;;;;;;;;;;;;;;;18.11;44.20;102073.19;4952934;27;98803;-66
2024/01/30 09:43:02;;;;;;;;;;;;;;;18.18;44.22;102063.91;4950878;27;97923;-72
2024/01/30 09:45:28;;;;;;;;;;;;;;;18.24;44.28;102066.34;4976780;27;98034;-66
2024/01/30 09:47:54;;;;;;;;;;;;;;;18.28;44.26;102063.88;4965444;27;97962;-66
2024/01/30 09:50:20;;;;;;;;;;;;;;;18.44;44.08;102073.59;4948542;27;98174;-66
2024/01/30 09:52:47;;;;;;;;;;;;;;;18.76;43.68;102062.22;4968423;27;97894;-72
2024/01/30 09:55:13;;;;;;;;;;;;;;;19.01;43.49;102069.41;4962398;27;98038;-72
2024/01/30 09:57:41;;;;;;;;;;;;;;;18.93;43.86;102069.22;4959225;27;98116;-66
2024/01/30 10:00:08;;;;;;;;;;;;;;;18.60;44.14;102075.13;4964489;27;98135;-65
2024/01/30 10:02:34;;;;;;;;;;;;;;;18.39;44.54;102079.06;4949486;27;98755;-66
2024/01/30 10:05:00;;;;;;;;;;;;;;;18.25;44.57;102081.59;4982445;27;98049;-65
2024/01/30 10:07:26;;;;;;;;;;;;;;;18.11;44.49;102086.84;4952063;27;98107;-72
2024/01/30 10:09:53;;;;;;;;;;;;;;;18.08;44.62;102083.88;4951781;27;98164;-66
2024/01/30 10:12:19;;;;;;;;;;;;;;;18.04;44.88;102080.88;4950070;27;97968;-66
2024/01/30 10:14:45;;;;;;;;;;;;;;;18.04;44.73;102071.88;4992020;27;116758;-67
2024/01/30 10:17:12;;;;;;;;;;;;;;;18.05;44.68;102065.34;4975915;27;98304;-72
2024/01/30 10:19:39;;;;;;;;;;;;;;;18.06;44.68;102066.97;4984574;27;99398;-72
2024/01/30 10:22:06;;;;;;;;;;;;;;;18.06;44.88;102077.88;4966627;27;98059;-72
2024/01/30 10:24:33;;;;;;;;;;;;;;;18.03;44.70;102060.13;4961961;27;98228;-66
2024/01/30 10:26:59;;;;;;;;;;;;;;;18.01;44.93;102058.81;4961671;27;98640;-65
2024/01/30 10:29:25;;;;;;;;;;;;;;;18.02;44.79;102054.97;4961317;27;115265;-72
2024/01/30 10:32:01;;;;;;;;;;;;;;;18.02;44.75;102050.31;4958533;27;103342;-66
2024/01/30 10:34:27;;;;;;;;;;;;;;;18.03;44.91;102046.50;4960754;27;98093;-73
2024/01/30 10:37:15;;;;;;;;;;;;;;;18.03;44.84;102043.75;4976077;27;98645;-72
2024/01/30 10:39:41;;;;;;;;;;;;;;;18.05;44.88;102033.41;4978533;27;98373;-66
2024/01/30 10:42:19;;;;;;;;;;;;;;;18.08;44.90;102030.13;4966293;27;98006;-66
2024/01/30 10:45:01;;;;;;;;;;;;;;;18.11;44.78;102034.19;4950406;27;98105;-72
2024/01/30 10:47:30;;;;;;;;;;;;;;;18.13;44.76;102029.28;4975918;27;98030;-73
2024/01/30 10:49:56;;;;;;;;;;;;;;;18.12;44.63;102030.38;4960910;27;98525;-72
2024/01/30 10:52:27;;;;;;;;;;;;;;;18.11;44.68;102028.72;4963800;27;98281;-72
2024/01/30 10:54:54;;;;;;;;;;;;;;;18.07;44.89;102023.00;4979411;27;103527;-66
2024/01/30 10:57:20;;;;;;;;;;;;;;;18.04;44.76;102017.31;4967171;27;99567;-66
2024/01/30 10:59:46;;;;;;;;;;;;;;;18.00;44.80;102018.94;4966785;27;110045;-72
2024/01/30 11:02:13;;;;;;;;;;;;;;;17.98;44.90;102021.16;4963355;27;98076;-72
2024/01/30 11:04:42;;;;;;;;;;;;;;;17.96;45.14;102024.19;4950405;27;99798;-73
2024/01/30 11:07:17;;;;;;;;;;;;;;;17.97;44.85;102023.06;4963634;27;98194;-66
2024/01/30 11:09:54;;;;;;;;;;;;;;;17.98;44.99;102018.44;4946776;27;98247;-66
2024/01/30 11:12:24;;;;;;;;;;;;;;;17.99;45.02;102017.31;4978543;27;99523;-66
2024/01/30 11:14:50;;;;;;;;;;;;;;;17.99;44.73;102012.69;4994939;27;97979;-66
2024/01/30 11:17:16;;;;;;;;;;;;;;;18.00;44.94;102002.59;4961623;27;98955;-65
2024/01/30 11:19:42;;;;;;;;;;;;;;;17.97;44.94;102009.44;4981649;27;128448;-66
2024/01/30 11:22:08;;;;;;;;;;;;;;;17.94;45.14;101993.63;4961443;27;98234;-72
2024/01/30 11:24:41;;;;;;;;;;;;;;;17.90;45.00;102007.00;4953349;27;98189;-72
2024/01/30 11:27:10;;;;;;;;;;;;;;;17.85;45.08;101998.84;4981325;27;98885;-66
2024/01/30 11:29:36;;;;;;;;;;;;;;;17.81;45.26;102002.41;4946503;27;99638;-72
2024/01/30 11:32:02;;;;;;;;;;;;;;;17.79;45.05;102001.88;4949730;27;97968;-72
2024/01/30 11:34:28;;;;;;;;;;;;;;;17.76;45.21;101999.69;4983865;27;102524;-66
2024/01/30 11:36:59;;;;;;;;;;;;;;;17.71;45.12;102005.16;4977419;27;98221;-66
2024/01/30 11:39:30;;;;;;;;;;;;;;;17.67;45.28;101999.44;4960227;27;98829;-72
2024/01/30 11:41:56;;;;;;;;;;;;;;;17.63;45.16;101999.16;4968589;27;98167;-72
2024/01/30 11:44:23;;;;;;;;;;;;;;;17.59;45.17;101989.91;4963275;27;98202;-72
2024/01/30 11:46:49;;;;;;;;;;;;;;;17.55;45.11;101983.38;4961868;27;103629;-72
2024/01/30 11:49:18;;;;;;;;;;;;;;;17.52;45.40;101994.03;4961101;27;98301;-66
2024/01/30 11:51:48;;;;;;;;;;;;;;;17.47;45.32;101983.94;4984741;27;98194;-66
2024/01/30 11:54:15;;;;;;;;;;;;;;;17.42;45.19;101970.34;4987206;27;97890;-66
2024/01/30 11:56:42;;;;;;;;;;;;;;;17.38;45.43;101974.72;4952915;27;98251;-72
2024/01/30 11:59:08;;;;;;;;;;;;;;;17.32;45.26;101967.63;4963808;27;99252;-72
2024/01/30 12:01:34;;;;;;;;;;;;;;;17.26;45.33;101969.56;4996545;27;98166;-66
2024/01/30 12:04:01;;;;;;;;;;;;;;;17.20;45.41;101961.69;4980130;27;98532;-66
2024/01/30 12:06:27;;;;;;;;;;;;;;;17.14;45.52;101958.16;4984647;27;98713;-72
2024/01/30 12:09:00;;;;;;;;;;;;;;;17.08;45.63;101962.78;4960022;27;99919;-65
2024/01/30 12:11:26;;;;;;;;;;;;;;;17.02;45.37;101963.09;4962901;27;100203;-72
2024/01/30 12:13:53;;;;;;;;;;;;;;;16.97;45.61;101968.53;4965467;27;98945;-66
2024/01/30 12:16:20;;;;;;;;;;;;;;;16.91;45.46;101976.69;4947384;27;99869;-71
2024/01/30 12:18:46;;;;;;;;;;;;;;;16.89;45.52;101976.13;4955232;27;101034;-72
2024/01/30 12:21:12;;;;;;;;;;;;;;;16.86;45.62;101962.28;4957891;27;98330;-72
2024/01/30 12:23:38;;;;;;;;;;;;;;;16.84;45.48;101967.16;4961832;27;98513;-72
2024/01/30 12:26:06;;;;;;;;;;;;;;;16.82;45.45;101972.06;4965421;27;129084;-72
2024/01/30 12:28:33;;;;;;;;;;;;;;;16.79;45.65;101970.72;4954390;27;99644;-66
2024/01/30 12:31:03;;;;;;;;;;;;;;;16.76;45.49;101970.44;4961071;27;98867;-72
2024/01/30 12:33:29;;;;;;;;;;;;;;;16.75;45.49;101969.63;4966028;27;98282;-66
2024/01/30 12:35:56;;;;;;;;;;;;;;;16.74;45.58;101964.44;4963045;27;99829;-72
2024/01/30 12:38:23;;;;;;;;;;;;;;;16.73;45.63;101965.50;4952493;27;99407;-73